createdAt,value
2023-06-22T00:02:32.404Z,100831.30
2023-06-22T00:06:22.411Z,100837.74
2023-06-22T00:10:10.856Z,100840.52
2023-06-22T00:13:59.801Z,100843.39
2023-06-22T00:17:48.399Z,100849.38
2023-06-22T00:21:37.017Z,100850.95
2023-06-22T00:25:25.503Z,100842.95
2023-06-22T00:29:14.081Z,100844.09
2023-06-22T00:33:02.727Z,100846.89
2023-06-22T00:36:51.239Z,100853.11
2023-06-22T00:40:39.692Z,100851.02
2023-06-22T00:44:28.201Z,100855.80
2023-06-22T00:48:16.782Z,100853.98
2023-06-22T00:52:05.417Z,100853.48
2023-06-22T00:55:53.849Z,100860.77
2023-06-22T00:59:35.446Z,100862.64
2023-06-22T01:03:24.027Z,100862.90
2023-06-22T01:07:12.716Z,100863.32
2023-06-22T01:11:03.979Z,100865.39
2023-06-22T01:14:58.289Z,100869.56
2023-06-22T01:18:46.709Z,100874.11
2023-06-22T01:22:35.527Z,100870.82
2023-06-22T01:26:37.911Z,100871.39
2023-06-22T01:30:26.608Z,100878.95
2023-06-22T01:34:15.296Z,100879.30
2023-06-22T01:38:03.795Z,100878.11
2023-06-22T01:41:52.246Z,100877.30
2023-06-22T01:45:35.169Z,100874.71
2023-06-22T01:49:23.676Z,100877.02
2023-06-22T01:53:12.092Z,100878.52
2023-06-22T01:57:00.565Z,100875.77
2023-06-22T02:00:52.080Z,100876.44
2023-06-22T02:04:46.523Z,100871.52
2023-06-22T02:08:35.065Z,100874.34
2023-06-22T02:12:23.535Z,100869.67
2023-06-22T02:16:12.159Z,100874.95
2023-06-22T02:20:00.626Z,100877.78
2023-06-22T02:23:49.168Z,100878.27
2023-06-22T02:27:37.628Z,100883.28
2023-06-22T02:31:27.458Z,100881.86
2023-06-22T02:35:16.424Z,100885.40
2023-06-22T02:39:04.963Z,100884.09
2023-06-22T02:42:53.939Z,100880.80
2023-06-22T02:46:42.819Z,100882.92
2023-06-22T02:50:31.388Z,100884.00
2023-06-22T02:54:20.029Z,100881.69
2023-06-22T02:58:08.370Z,100878.45
2023-06-22T03:01:57.338Z,100874.25
2023-06-22T03:05:45.889Z,100880.25
2023-06-22T03:09:36.166Z,100883.33
2023-06-22T03:13:24.628Z,100884.71
2023-06-22T03:17:13.181Z,100887.34
2023-06-22T03:21:01.594Z,100887.89
2023-06-22T03:24:50.020Z,100892.77
2023-06-22T03:28:38.592Z,100893.34
2023-06-22T03:32:28.635Z,100900.95
2023-06-22T03:36:17.250Z,100898.93
2023-06-22T03:40:05.698Z,100893.91
2023-06-22T03:43:54.153Z,100892.48
2023-06-22T03:47:42.744Z,100894.80
2023-06-22T03:51:31.220Z,100889.27
2023-06-22T03:55:23.474Z,100888.77
2023-06-22T03:59:11.962Z,100889.64
2023-06-22T04:03:00.726Z,100891.53
2023-06-22T04:06:49.325Z,100897.41
2023-06-22T04:10:37.792Z,100902.77
2023-06-22T04:14:26.303Z,100907.77
2023-06-22T04:17:54.750Z,100908.25
2023-06-22T04:21:43.289Z,100908.55
2023-06-22T04:25:31.746Z,100913.72
2023-06-22T04:29:20.228Z,100919.36
2023-06-22T04:33:08.714Z,100924.62
2023-06-22T04:36:57.196Z,100925.15
2023-06-22T04:40:46.039Z,100924.95
2023-06-22T04:44:34.522Z,100926.61
2023-06-22T04:48:23.060Z,100926.86
2023-06-22T04:52:11.579Z,100928.63
2023-06-22T04:56:00.006Z,100926.92
2023-06-22T04:59:49.679Z,100931.20
2023-06-22T05:03:39.077Z,100935.73
2023-06-22T05:07:27.891Z,100939.27
2023-06-22T05:11:15.061Z,100940.61
2023-06-22T05:15:03.603Z,100942.84
2023-06-22T05:18:52.820Z,100942.09
2023-06-22T05:22:42.078Z,100933.67
2023-06-22T05:26:31.026Z,100933.69
2023-06-22T05:30:21.469Z,100938.02
2023-06-22T05:34:10.835Z,100930.30
2023-06-22T05:37:59.294Z,100932.37
2023-06-22T05:41:47.752Z,100934.36
2023-06-22T05:45:28.845Z,100929.45
2023-06-22T05:49:17.357Z,100930.73
2023-06-22T05:53:08.770Z,100925.98
2023-06-22T05:56:57.203Z,100923.48
2023-06-22T06:00:45.747Z,100914.88
2023-06-22T06:04:34.186Z,100915.49
2023-06-22T06:08:22.924Z,100915.16
2023-06-22T06:12:11.419Z,100911.88
2023-06-22T06:15:59.838Z,100910.59
2023-06-22T06:19:48.367Z,100909.17
2023-06-22T06:23:36.851Z,100912.00
2023-06-22T06:27:25.371Z,100905.17
2023-06-22T06:31:07.061Z,100907.71
2023-06-22T06:34:55.557Z,100905.60
2023-06-22T06:38:44.068Z,100909.84
2023-06-22T06:42:32.601Z,100905.52
2023-06-22T06:46:21.226Z,100904.42
2023-06-22T06:50:09.743Z,100902.34
2023-06-22T06:53:58.266Z,100899.84
2023-06-22T06:57:46.752Z,100898.14
2023-06-22T07:01:35.256Z,100897.99
2023-06-22T07:05:22.882Z,100895.73
2023-06-22T07:09:11.361Z,100888.57
2023-06-22T07:12:59.770Z,100892.71
2023-06-22T07:16:47.960Z,100894.12
2023-06-22T07:20:32.468Z,100892.27
2023-06-22T07:24:21.707Z,100893.44
2023-06-22T07:28:10.236Z,100891.74
2023-06-22T07:32:00.884Z,100888.69
2023-06-22T07:35:49.544Z,100891.92
2023-06-22T07:39:38.070Z,100895.02
2023-06-22T07:43:26.597Z,100892.06
2023-06-22T07:47:27.034Z,100890.42
2023-06-22T07:51:18.563Z,100898.23
2023-06-22T07:55:07.148Z,100903.13
2023-06-22T07:58:48.813Z,100902.20
2023-06-22T08:02:37.427Z,100897.99
2023-06-22T08:06:26.339Z,100898.54
2023-06-22T08:10:07.551Z,100897.39
2023-06-22T08:13:56.952Z,100903.02
2023-06-22T08:17:47.665Z,100900.27
2023-06-22T08:21:26.336Z,100899.77
2023-06-22T08:25:14.891Z,100901.77
2023-06-22T08:29:02.059Z,100906.77
2023-06-22T08:32:50.536Z,100905.80
2023-06-22T08:36:39.023Z,100899.67
2023-06-22T08:40:29.961Z,100902.52
2023-06-22T08:44:18.423Z,100905.88
2023-06-22T08:48:06.831Z,100906.05
2023-06-22T08:51:55.362Z,100902.95
2023-06-22T08:55:43.813Z,100898.34
2023-06-22T08:59:30.875Z,100896.61
2023-06-22T09:03:19.502Z,100889.29
2023-06-22T09:06:59.254Z,100887.98
2023-06-22T09:10:46.604Z,100884.33
2023-06-22T09:14:35.084Z,100882.42
2023-06-22T09:18:24.523Z,100883.21
2023-06-22T09:22:13.068Z,100882.96
2023-06-22T09:26:01.542Z,100881.27
2023-06-22T09:29:50.049Z,100877.01
2023-06-22T09:33:39.600Z,100877.17
2023-06-22T09:37:26.600Z,100872.31
2023-06-22T09:41:15.094Z,100878.14
2023-06-22T09:44:57.293Z,100876.17
2023-06-22T09:48:45.840Z,100875.73
2023-06-22T09:52:47.796Z,100878.23
2023-06-22T09:56:35.443Z,100868.95
2023-06-22T10:00:23.904Z,100861.97
2023-06-22T10:04:05.623Z,100856.81
2023-06-22T10:07:54.358Z,100857.08
2023-06-22T10:11:42.225Z,100855.95
2023-06-22T10:15:29.431Z,100853.98
2023-06-22T10:19:07.443Z,100848.22
2023-06-22T10:22:57.506Z,100851.84
2023-06-22T10:26:30.830Z,100844.72
2023-06-22T10:30:19.467Z,100846.30
2023-06-22T10:33:52.442Z,100843.14
2023-06-22T10:37:41.102Z,100837.41
2023-06-22T10:41:29.540Z,100828.38
2023-06-22T10:45:18.098Z,100827.54
2023-06-22T10:49:06.751Z,100821.42
2023-06-22T10:52:57.432Z,100815.02
2023-06-22T10:56:46.411Z,100816.48
2023-06-22T11:00:34.862Z,100816.40
2023-06-22T11:04:24.649Z,100811.51
2023-06-22T11:07:57.065Z,100813.48
2023-06-22T11:11:45.623Z,100810.59
2023-06-22T11:15:34.212Z,100806.25
2023-06-22T11:19:23.287Z,100801.75
2023-06-22T11:23:11.536Z,100797.02
2023-06-22T11:27:00.242Z,100797.94
2023-06-22T11:30:49.138Z,100790.69
2023-06-22T11:34:38.266Z,100790.06
2023-06-22T11:38:26.636Z,100791.70
2023-06-22T11:42:15.063Z,100796.95
2023-06-22T11:46:03.797Z,100789.40
2023-06-22T11:49:53.224Z,100786.94
2023-06-22T11:53:42.969Z,100791.82
2023-06-22T11:57:31.419Z,100788.83
2023-06-22T12:01:20.098Z,100781.69
2023-06-22T12:04:56.843Z,100786.09
2023-06-22T12:08:46.355Z,100781.96
2023-06-22T12:12:34.813Z,100783.83
2023-06-22T12:16:22.468Z,100784.44
2023-06-22T12:20:11.677Z,100781.30
2023-06-22T12:24:00.628Z,100783.48
2023-06-22T12:27:49.626Z,100771.11
2023-06-22T12:31:38.077Z,100770.66
2023-06-22T12:35:26.683Z,100766.73
2023-06-22T12:39:03.785Z,100761.73
2023-06-22T12:42:52.556Z,100756.73
2023-06-22T12:46:40.110Z,100752.94
2023-06-22T12:50:34.745Z,100747.53
2023-06-22T12:54:23.706Z,100748.54
2023-06-22T12:58:12.229Z,100749.25
2023-06-22T13:02:00.720Z,100741.88
2023-06-22T13:06:52.945Z,100741.11
2023-06-22T13:09:58.447Z,100740.86
2023-06-22T13:13:47.029Z,100735.81
2023-06-22T13:17:35.723Z,100730.52
2023-06-22T13:21:23.413Z,100727.80
2023-06-22T13:25:12.310Z,100721.33
2023-06-22T13:29:02.340Z,100722.48
2023-06-22T13:32:51.047Z,100719.45
2023-06-22T13:36:39.710Z,100719.52
2023-06-22T13:40:28.307Z,100717.77
2023-06-22T13:44:16.828Z,100717.45
2023-06-22T13:48:05.488Z,100712.52
2023-06-22T13:51:53.979Z,100714.56
2023-06-22T13:55:42.462Z,100710.68
2023-06-22T13:59:30.991Z,100708.73
2023-06-22T14:03:19.437Z,100710.46
2023-06-22T14:07:08.476Z,100707.62
2023-06-22T14:10:57.890Z,100705.04
2023-06-22T14:14:46.432Z,100699.42
2023-06-22T14:18:35.074Z,100699.47
2023-06-22T14:22:23.579Z,100699.74
2023-06-22T14:26:12.072Z,100694.04
2023-06-22T14:30:00.610Z,100696.73
2023-06-22T14:33:49.052Z,100687.71
2023-06-22T14:37:31.562Z,100688.10
2023-06-22T14:41:21.019Z,100685.96
2023-06-22T14:45:09.531Z,100686.82
2023-06-22T14:48:57.222Z,100682.45
2023-06-22T14:52:44.740Z,100685.27
2023-06-22T14:56:33.005Z,100689.47
2023-06-22T15:00:16.036Z,100681.79
2023-06-22T15:04:04.621Z,100681.16
2023-06-22T15:07:54.312Z,100681.73
2023-06-22T15:11:42.803Z,100674.30
2023-06-22T15:15:31.792Z,100676.55
2023-06-22T15:19:19.448Z,100677.19
2023-06-22T15:23:08.050Z,100678.59
2023-06-22T15:26:56.675Z,100672.73
2023-06-22T15:31:23.926Z,100675.14
2023-06-22T15:34:40.529Z,100683.45
2023-06-22T15:38:29.481Z,100684.94
2023-06-22T15:42:16.726Z,100688.95
2023-06-22T15:45:58.300Z,100688.05
2023-06-22T15:49:46.906Z,100691.21
2023-06-22T15:53:42.689Z,100690.48
2023-06-22T15:56:54.380Z,100690.11
2023-06-22T16:00:46.486Z,100693.88
2023-06-22T16:04:35.667Z,100692.80
2023-06-22T16:08:14.168Z,100691.75
2023-06-22T16:12:02.745Z,100688.66
2023-06-22T16:15:51.240Z,100684.86
2023-06-22T16:19:39.689Z,100679.32
2023-06-22T16:23:28.204Z,100683.84
2023-06-22T16:27:19.818Z,100682.02
2023-06-22T16:32:30.773Z,100683.34
2023-06-22T16:35:21.232Z,100682.10
2023-06-22T16:39:01.968Z,100671.64
2023-06-22T16:42:44.022Z,100667.13
2023-06-22T16:46:33.384Z,100664.39
2023-06-22T16:50:22.149Z,100662.85
2023-06-22T16:54:10.627Z,100657.89
2023-06-22T16:57:50.255Z,100648.61
2023-06-22T17:01:41.810Z,100646.31
2023-06-22T17:05:30.438Z,100646.00
2023-06-22T17:09:18.962Z,100649.55
2023-06-22T17:13:07.770Z,100650.15
2023-06-22T17:16:58.223Z,100645.05
2023-06-22T17:20:40.240Z,100644.91
2023-06-22T17:24:18.907Z,100645.14
2023-06-22T17:27:36.699Z,100658.04
2023-06-22T17:31:24.449Z,100660.08
2023-06-22T17:35:13.238Z,100658.52
2023-06-22T17:39:04.870Z,100657.91
2023-06-22T17:42:53.594Z,100656.02
2023-06-22T17:46:12.433Z,100659.40
2023-06-22T17:49:48.340Z,100656.62
2023-06-22T17:53:36.795Z,100660.61
2023-06-22T17:57:19.446Z,100661.72
2023-06-22T18:00:45.028Z,100656.77
2023-06-22T18:04:34.811Z,100656.55
2023-06-22T18:08:23.250Z,100663.59
2023-06-22T18:12:12.523Z,100667.47
2023-06-22T18:15:59.857Z,100671.02
2023-06-22T18:19:50.209Z,100676.01
2023-06-22T18:23:31.461Z,100679.33
2023-06-22T18:28:18.706Z,100687.30
2023-06-22T18:31:23.589Z,100690.08
2023-06-22T18:35:12.056Z,100693.33
2023-06-22T18:39:02.244Z,100694.96
2023-06-22T18:43:24.657Z,100698.15
2023-06-22T18:48:04.240Z,100698.82
2023-06-22T18:51:15.977Z,100704.78
2023-06-22T18:55:16.671Z,100708.29
2023-06-22T18:59:14.522Z,100708.29
2023-06-22T19:03:11.052Z,100709.56
2023-06-22T19:06:58.134Z,100705.58
2023-06-22T19:12:14.876Z,100709.35
2023-06-22T19:15:23.753Z,100707.44
2023-06-22T19:19:25.637Z,100703.39
2023-06-22T19:23:26.259Z,100712.17
2023-06-22T19:27:14.979Z,100713.76
2023-06-22T19:30:56.987Z,100714.52
2023-06-22T19:34:46.353Z,100719.42
2023-06-22T19:38:34.978Z,100722.66
2023-06-22T19:42:23.718Z,100721.84
2023-06-22T19:48:45.175Z,100723.04
2023-06-22T19:50:22.094Z,100722.04
2023-06-22T19:54:17.184Z,100724.09
2023-06-22T19:58:06.722Z,100730.39
2023-06-22T20:01:58.229Z,100725.97
2023-06-22T20:05:46.804Z,100728.80
2023-06-22T20:09:40.618Z,100725.92
2023-06-22T20:13:29.625Z,100727.77
2023-06-22T20:17:18.275Z,100724.09
2023-06-22T20:21:07.010Z,100719.98
2023-06-22T20:24:55.456Z,100711.52
2023-06-22T20:28:39.348Z,100707.92
2023-06-22T20:32:27.855Z,100705.61
2023-06-22T20:36:16.405Z,100705.80
2023-06-22T20:40:05.930Z,100704.59
2023-06-22T20:43:57.438Z,100705.23
2023-06-22T20:47:46.338Z,100706.01
2023-06-22T20:51:35.474Z,100706.75
2023-06-22T20:55:23.944Z,100707.55
2023-06-22T20:59:05.059Z,100705.70
2023-06-22T21:02:53.823Z,100705.24
2023-06-22T21:06:43.411Z,100699.52
2023-06-22T21:10:31.806Z,100701.32
2023-06-22T21:14:20.751Z,100702.74
2023-06-22T21:18:03.702Z,100700.98
2023-06-22T21:21:52.196Z,100701.83
2023-06-22T21:25:44.738Z,100700.58
2023-06-22T21:29:33.444Z,100693.69
2023-06-22T21:33:21.903Z,100691.54
2023-06-22T21:37:10.404Z,100689.70
2023-06-22T21:40:58.816Z,100683.72
2023-06-22T21:44:47.299Z,100680.19
2023-06-22T21:48:35.783Z,100675.79
2023-06-22T21:52:23.607Z,100671.15
2023-06-22T21:56:12.097Z,100665.88
2023-06-22T22:00:00.543Z,100653.76
2023-06-22T22:03:49.522Z,100657.36
2023-06-22T22:07:37.945Z,100663.13
2023-06-22T22:11:26.441Z,100658.51
2023-06-22T22:15:15.426Z,100649.89
2023-06-22T22:19:03.936Z,100650.55
2023-06-22T22:22:53.053Z,100644.32
2023-06-22T22:26:41.549Z,100636.69
2023-06-22T22:30:29.757Z,100629.91
2023-06-22T22:34:18.290Z,100623.77
2023-06-22T22:38:06.833Z,100621.25
2023-06-22T22:41:55.282Z,100619.31
2023-06-22T22:45:43.751Z,100612.72
2023-06-22T22:49:32.187Z,100608.79
2023-06-22T22:53:23.742Z,100600.38
2023-06-22T22:57:12.259Z,100600.34
2023-06-22T23:01:00.682Z,100597.59
2023-06-22T23:04:49.118Z,100593.33
2023-06-22T23:08:30.811Z,100593.90
2023-06-22T23:12:19.253Z,100592.42
2023-06-22T23:16:07.844Z,100588.01
2023-06-22T23:19:56.246Z,100577.77
2023-06-22T23:23:44.632Z,100573.30
2023-06-22T23:27:33.030Z,100568.49
2023-06-22T23:31:21.482Z,100569.13
2023-06-22T23:35:09.029Z,100570.82
2023-06-22T23:38:57.513Z,100567.50
2023-06-22T23:42:46.001Z,100565.91
2023-06-22T23:46:34.469Z,100564.31
2023-06-22T23:50:22.923Z,100569.66
2023-06-22T23:54:11.415Z,100562.66
2023-06-22T23:57:59.898Z,100559.14
